createdAt,value
2018-09-08T00:02:23.531Z,99.90
2018-09-08T00:04:52.597Z,99.90
2018-09-08T00:07:26.819Z,99.90
2018-09-08T00:09:55.800Z,99.90
2018-09-08T00:12:24.823Z,99.90
2018-09-08T00:14:52.961Z,99.90
2018-09-08T00:17:27.246Z,99.90
2018-09-08T00:20:01.599Z,99.90
2018-09-08T00:22:35.877Z,99.90
2018-09-08T00:25:10.304Z,99.90
2018-09-08T00:27:42.769Z,99.90
2018-09-08T00:30:13.628Z,99.90
2018-09-08T00:32:42.628Z,99.90
2018-09-08T00:35:11.576Z,99.90
2018-09-08T00:37:40.599Z,99.90
2018-09-08T00:40:09.651Z,99.90
2018-09-08T00:42:38.607Z,99.90
2018-09-08T00:45:07.862Z,99.90
2018-09-08T00:47:36.992Z,99.90
2018-09-08T00:50:06.191Z,99.90
2018-09-08T00:52:35.315Z,99.90
2018-09-08T00:55:04.271Z,99.90
2018-09-08T00:57:33.272Z,99.90
2018-09-08T01:00:02.474Z,99.90
2018-09-08T01:02:31.441Z,99.90
2018-09-08T01:05:00.499Z,99.90
2018-09-08T01:07:31.231Z,99.90
2018-09-08T01:10:02.239Z,99.90
2018-09-08T01:12:31.519Z,99.90
2018-09-08T01:15:01.252Z,99.90
2018-09-08T01:17:30.431Z,99.90
2018-09-08T01:19:59.530Z,99.90
2018-09-08T01:22:28.750Z,99.90
2018-09-08T01:24:57.732Z,99.90
2018-09-08T01:27:26.822Z,99.90
2018-09-08T01:29:55.907Z,99.90
2018-09-08T01:32:24.883Z,99.90
2018-09-08T01:34:54.112Z,99.90
2018-09-08T01:37:23.169Z,99.90
2018-09-08T01:39:52.286Z,99.90
2018-09-08T01:42:21.360Z,99.90
2018-09-08T01:44:50.451Z,99.90
2018-09-08T01:47:19.583Z,99.90
2018-09-08T01:49:48.672Z,99.90
2018-09-08T01:52:17.665Z,99.90
2018-09-08T01:54:46.620Z,99.90
2018-09-08T01:57:15.628Z,99.90
2018-09-08T01:59:44.760Z,99.90
2018-09-08T02:02:13.832Z,99.90
2018-09-08T02:04:42.791Z,99.90
2018-09-08T02:07:11.784Z,99.90
2018-09-08T02:09:40.905Z,99.90
2018-09-08T02:12:10.032Z,99.90
2018-09-08T02:14:39.116Z,99.90
2018-09-08T02:17:08.096Z,99.90
2018-09-08T02:19:37.288Z,99.90
2018-09-08T02:22:06.594Z,99.90
2018-09-08T02:24:35.674Z,99.90
2018-09-08T02:27:05.000Z,99.90
2018-09-08T02:29:33.976Z,99.90
2018-09-08T02:32:02.964Z,99.90
2018-09-08T02:34:31.976Z,99.90
2018-09-08T02:37:00.945Z,99.90
2018-09-08T02:39:30.032Z,99.90
2018-09-08T02:41:59.143Z,99.90
2018-09-08T02:44:28.244Z,99.90
2018-09-08T02:46:57.223Z,99.90
2018-09-08T02:49:36.833Z,99.90
2018-09-08T02:52:04.392Z,99.90
2018-09-08T02:54:31.970Z,99.90
2018-09-08T02:56:59.717Z,99.90
2018-09-08T02:59:27.197Z,99.90
2018-09-08T03:01:54.934Z,99.90
2018-09-08T03:04:22.596Z,99.90
2018-09-08T03:06:50.257Z,99.90
2018-09-08T03:09:17.732Z,99.90
2018-09-08T03:11:45.301Z,99.90
2018-09-08T03:14:13.035Z,99.90
2018-09-08T03:16:40.696Z,99.90
2018-09-08T03:19:08.357Z,99.90
2018-09-08T03:21:36.020Z,99.90
2018-09-08T03:24:03.781Z,99.90
2018-09-08T03:26:31.443Z,99.90
2018-09-08T03:28:59.104Z,99.90
2018-09-08T03:31:26.765Z,99.90
2018-09-08T03:33:54.428Z,99.90
2018-09-08T03:36:22.089Z,99.90
2018-09-08T03:38:49.749Z,99.90
2018-09-08T03:41:17.513Z,99.90
2018-09-08T03:43:45.174Z,99.90
2018-09-08T03:46:12.835Z,99.90
2018-09-08T03:48:40.506Z,99.90
2018-09-08T03:51:08.261Z,99.90
2018-09-08T03:53:35.938Z,99.90
2018-09-08T03:56:03.609Z,99.90
2018-09-08T03:58:31.351Z,99.90
2018-09-08T04:00:59.117Z,99.90
2018-09-08T04:03:28.173Z,99.90
2018-09-08T04:05:57.240Z,99.90
2018-09-08T04:08:26.228Z,99.90
2018-09-08T04:10:55.220Z,99.90
2018-09-08T04:13:24.300Z,99.90
2018-09-08T04:15:53.420Z,99.90
2018-09-08T04:18:22.524Z,99.90
2018-09-08T04:20:51.696Z,99.90
2018-09-08T04:23:20.813Z,99.90
2018-09-08T04:25:49.886Z,99.90
2018-09-08T04:28:19.015Z,99.90
2018-09-08T04:30:48.076Z,99.90
2018-09-08T04:33:17.176Z,99.90
2018-09-08T04:35:46.154Z,99.90
2018-09-08T04:38:15.153Z,99.90
2018-09-08T04:40:44.280Z,99.90
2018-09-08T04:43:13.261Z,99.90
2018-09-08T04:45:42.432Z,99.90
2018-09-08T04:48:11.516Z,99.90
2018-09-08T04:50:40.613Z,99.90
2018-09-08T04:53:09.756Z,99.90
2018-09-08T04:55:39.024Z,99.90
2018-09-08T04:58:08.117Z,99.90
2018-09-08T05:00:37.120Z,99.90
2018-09-08T05:03:06.217Z,99.90
2018-09-08T05:05:35.226Z,99.90
2018-09-08T05:08:04.289Z,99.90
2018-09-08T05:10:33.380Z,99.90
2018-09-08T05:13:02.482Z,99.90
2018-09-08T05:15:31.459Z,99.90
2018-09-08T05:18:00.602Z,99.90
2018-09-08T05:20:29.579Z,99.90
2018-09-08T05:22:58.671Z,99.90
2018-09-08T05:25:27.649Z,99.90
2018-09-08T05:27:56.757Z,99.90
2018-09-08T05:30:25.868Z,99.90
2018-09-08T05:32:55.025Z,99.90
2018-09-08T05:35:24.040Z,99.90
2018-09-08T05:37:53.137Z,99.90
2018-09-08T05:40:22.335Z,99.90
2018-09-08T05:42:51.451Z,99.90
2018-09-08T05:45:20.719Z,99.90
2018-09-08T05:47:49.812Z,99.90
2018-09-08T05:50:19.084Z,99.90
2018-09-08T05:52:48.219Z,99.90
2018-09-08T05:55:17.352Z,99.90
2018-09-08T05:57:46.512Z,99.90
2018-09-08T06:00:15.702Z,99.90
2018-09-08T06:02:44.660Z,99.90
2018-09-08T06:05:13.875Z,99.90
2018-09-08T06:07:42.900Z,99.90
2018-09-08T06:10:12.324Z,99.90
2018-09-08T06:12:41.447Z,99.90
2018-09-08T06:15:10.594Z,99.90
2018-09-08T06:17:39.822Z,99.90
2018-09-08T06:20:09.031Z,99.90
2018-09-08T06:22:38.170Z,99.90
2018-09-08T06:25:07.351Z,99.90
2018-09-08T06:27:36.453Z,99.90
2018-09-08T06:30:05.665Z,99.90
2018-09-08T06:32:34.788Z,99.90
2018-09-08T06:35:03.968Z,99.90
2018-09-08T06:37:32.920Z,99.90
2018-09-08T06:40:02.024Z,99.90
2018-09-08T06:42:31.339Z,99.90
2018-09-08T06:45:00.667Z,99.90
2018-09-08T06:47:29.611Z,99.90
2018-09-08T06:49:58.824Z,99.90
2018-09-08T06:52:27.824Z,99.90
2018-09-08T06:54:56.767Z,99.90
2018-09-08T06:57:26.178Z,99.90
2018-09-08T06:59:55.180Z,99.90
2018-09-08T07:02:24.268Z,99.90
2018-09-08T07:04:53.472Z,99.90
2018-09-08T07:07:22.572Z,99.90
2018-09-08T07:09:51.600Z,99.90
2018-09-08T07:12:20.786Z,99.90
2018-09-08T07:14:49.884Z,99.90
2018-09-08T07:17:18.844Z,99.90
2018-09-08T07:19:47.937Z,99.90
2018-09-08T07:22:17.044Z,99.90
2018-09-08T07:24:46.162Z,99.90
2018-09-08T07:27:15.116Z,99.90
2018-09-08T07:29:44.163Z,99.90
2018-09-08T07:32:13.189Z,99.90
2018-09-08T07:34:42.265Z,99.90
2018-09-08T07:37:11.392Z,99.90
2018-09-08T07:39:40.313Z,99.90
2018-09-08T07:42:09.283Z,99.90
2018-09-08T07:44:38.397Z,99.90
2018-09-08T07:47:07.512Z,99.90
2018-09-08T07:49:36.593Z,99.90
2018-09-08T07:52:05.884Z,99.90
2018-09-08T07:54:34.959Z,99.90
2018-09-08T07:57:03.962Z,99.90
2018-09-08T07:59:33.128Z,99.90
2018-09-08T08:02:02.248Z,99.90
2018-09-08T08:04:31.381Z,99.90
2018-09-08T08:07:00.257Z,99.90
2018-09-08T08:09:29.241Z,99.90
2018-09-08T08:11:58.363Z,99.90
2018-09-08T08:14:27.370Z,99.90
2018-09-08T08:16:56.313Z,99.90
2018-09-08T08:19:25.436Z,99.90
2018-09-08T08:21:54.512Z,99.90
2018-09-08T08:24:23.602Z,99.90
2018-09-08T08:26:52.691Z,99.90
2018-09-08T08:29:21.805Z,99.90
2018-09-08T08:31:50.800Z,99.90
2018-09-08T08:34:19.971Z,99.90
2018-09-08T08:36:49.139Z,99.90
2018-09-08T08:39:18.382Z,99.90
2018-09-08T08:41:47.652Z,99.90
2018-09-08T08:44:16.618Z,99.90
2018-09-08T08:46:45.630Z,99.90
2018-09-08T08:49:14.688Z,99.90
2018-09-08T08:51:54.664Z,99.90
2018-09-08T08:54:31.901Z,99.90
2018-09-08T08:57:00.995Z,99.90
2018-09-08T09:00:08.929Z,99.90
2018-09-08T09:02:37.971Z,99.90
2018-09-08T09:05:07.092Z,99.90
2018-09-08T09:07:36.372Z,99.90
2018-09-08T09:10:05.485Z,99.90
2018-09-08T09:12:34.600Z,99.90
2018-09-08T09:15:04.157Z,99.90
2018-09-08T09:17:32.949Z,99.90
2018-09-08T09:20:13.023Z,99.90
2018-09-08T09:22:52.961Z,99.90
2018-09-08T09:25:22.095Z,99.90
2018-09-08T09:27:51.982Z,99.90
2018-09-08T09:30:21.817Z,99.90
2018-09-08T09:32:51.069Z,99.90
2018-09-08T09:35:21.410Z,99.90
2018-09-08T09:37:50.396Z,99.90
2018-09-08T09:40:20.701Z,99.90
2018-09-08T09:42:49.616Z,99.90
2018-09-08T09:45:18.777Z,99.90
2018-09-08T09:47:47.909Z,99.90
2018-09-08T09:50:16.898Z,99.50
2018-09-08T09:52:45.988Z,98.70
2018-09-08T09:55:15.022Z,98.30
2018-09-08T09:57:44.080Z,97.90
2018-09-08T10:00:18.484Z,97.00
2018-09-08T10:02:54.511Z,96.60
2018-09-08T10:05:24.567Z,97.40
2018-09-08T10:07:54.503Z,95.60
2018-09-08T10:10:25.204Z,96.40
2018-09-08T10:12:54.301Z,96.90
2018-09-08T10:15:23.452Z,95.20
2018-09-08T10:17:52.494Z,94.80
2018-09-08T10:20:22.821Z,95.60
2018-09-08T10:22:51.912Z,95.20
2018-09-08T10:25:21.175Z,94.30
2018-09-08T10:27:50.522Z,95.00
2018-09-08T10:30:19.730Z,91.40
2018-09-08T10:32:48.888Z,93.10
2018-09-08T10:35:18.142Z,90.70
2018-09-08T10:37:47.331Z,90.70
2018-09-08T10:40:16.408Z,90.10
2018-09-08T10:42:45.702Z,89.20
2018-09-08T10:45:14.790Z,83.60
2018-09-08T10:47:44.012Z,82.60
2018-09-08T10:50:13.286Z,81.00
2018-09-08T10:52:47.585Z,80.10
2018-09-08T10:55:16.700Z,79.40
2018-09-08T10:57:45.794Z,78.10
2018-09-08T11:00:15.881Z,74.70
2018-09-08T11:02:45.223Z,79.50
2018-09-08T11:05:14.243Z,79.70
2018-09-08T11:07:43.416Z,79.30
2018-09-08T11:10:12.530Z,78.30
2018-09-08T11:12:41.606Z,80.40
2018-09-08T11:15:11.061Z,72.40
2018-09-08T11:17:40.092Z,74.60
2018-09-08T11:20:09.233Z,72.70
2018-09-08T11:22:38.504Z,68.50
2018-09-08T11:25:07.793Z,74.60
2018-09-08T11:27:37.415Z,65.80
2018-09-08T11:30:07.083Z,65.80
2018-09-08T11:32:36.108Z,66.50
2018-09-08T11:35:05.407Z,65.20
2018-09-08T11:37:34.520Z,65.00
2018-09-08T11:40:03.692Z,63.00
2018-09-08T11:42:32.794Z,62.90
2018-09-08T11:45:01.979Z,66.30
2018-09-08T11:47:31.114Z,63.50
2018-09-08T11:50:00.374Z,63.50
2018-09-08T11:52:29.472Z,60.50
2018-09-08T11:54:58.584Z,61.90
2018-09-08T11:57:27.756Z,59.90
2018-09-08T11:59:56.924Z,59.70
2018-09-08T12:02:26.046Z,60.50
2018-09-08T12:04:55.048Z,61.20
2018-09-08T12:07:24.051Z,59.60
2018-09-08T12:09:53.113Z,60.20
2018-09-08T12:12:22.121Z,60.30
2018-09-08T12:14:51.448Z,58.50
2018-09-08T12:17:19.616Z,58.10
2018-09-08T12:19:48.680Z,57.30
2018-09-08T12:22:17.859Z,57.40
2018-09-08T12:24:46.996Z,56.00
2018-09-08T12:27:16.100Z,57.50
2018-09-08T12:29:45.066Z,56.40
2018-09-08T12:32:14.121Z,57.20
2018-09-08T12:34:43.170Z,56.20
2018-09-08T12:37:12.179Z,56.60
2018-09-08T12:39:41.399Z,56.10
2018-09-08T12:42:10.544Z,56.00
2018-09-08T12:44:39.643Z,57.60
2018-09-08T12:47:08.748Z,57.30
2018-09-08T12:49:37.952Z,55.40
2018-09-08T12:52:07.192Z,54.40
2018-09-08T12:54:36.393Z,53.80
2018-09-08T12:57:05.620Z,54.10
2018-09-08T12:59:34.771Z,53.90
2018-09-08T13:02:03.808Z,53.70
2018-09-08T13:04:32.935Z,54.60
2018-09-08T13:07:01.995Z,53.20
2018-09-08T13:09:31.081Z,53.40
2018-09-08T13:12:00.410Z,54.50
2018-09-08T13:14:28.632Z,54.20
2018-09-08T13:16:57.785Z,54.20
2018-09-08T13:19:26.861Z,53.90
2018-09-08T13:21:55.971Z,53.60
2018-09-08T13:24:24.191Z,53.40
2018-09-08T13:26:52.261Z,54.90
2018-09-08T13:29:20.361Z,53.90
2018-09-08T13:31:48.401Z,54.00
2018-09-08T13:34:16.428Z,53.90
2018-09-08T13:36:44.627Z,53.20
2018-09-08T13:39:12.762Z,53.00
2018-09-08T13:41:40.940Z,51.90
2018-09-08T13:44:10.198Z,50.30
2018-09-08T13:46:38.224Z,50.70
2018-09-08T13:49:06.540Z,50.70
2018-09-08T13:51:35.588Z,51.50
2018-09-08T13:54:03.705Z,51.40
2018-09-08T13:56:31.874Z,51.60
2018-09-08T13:59:00.047Z,52.10
2018-09-08T14:01:29.086Z,51.40
2018-09-08T14:03:57.205Z,50.40
2018-09-08T14:06:25.273Z,50.30
2018-09-08T14:08:53.663Z,50.10
2018-09-08T14:11:21.840Z,51.00
2018-09-08T14:13:50.947Z,49.90
2018-09-08T14:16:19.979Z,49.10
2018-09-08T14:18:48.956Z,49.50
2018-09-08T14:21:17.984Z,48.70
2018-09-08T14:23:46.953Z,47.70
2018-09-08T14:26:16.051Z,49.00
2018-09-08T14:28:45.044Z,47.80
2018-09-08T14:31:13.160Z,48.50
2018-09-08T14:33:42.336Z,47.90
2018-09-08T14:36:11.294Z,48.10
2018-09-08T14:38:40.311Z,47.70
2018-09-08T14:41:09.381Z,47.60
2018-09-08T14:43:38.348Z,48.40
2018-09-08T14:46:07.522Z,47.90
2018-09-08T14:48:36.564Z,48.20
2018-09-08T14:51:05.561Z,48.70
2018-09-08T14:53:34.636Z,47.70
2018-09-08T14:56:03.740Z,48.80
2018-09-08T14:58:32.956Z,48.70
2018-09-08T15:01:02.027Z,47.80
2018-09-08T15:03:31.139Z,47.50
2018-09-08T15:06:00.209Z,47.60
2018-09-08T15:08:29.308Z,46.80
2018-09-08T15:10:58.429Z,47.20
2018-09-08T15:13:27.427Z,47.40
2018-09-08T15:15:56.526Z,47.40
2018-09-08T15:18:25.584Z,47.10
2018-09-08T15:20:54.597Z,47.30
2018-09-08T15:23:23.605Z,47.90
2018-09-08T15:25:52.697Z,47.90
2018-09-08T15:28:21.682Z,47.90
2018-09-08T15:30:50.823Z,48.20
2018-09-08T15:33:19.871Z,48.00
2018-09-08T15:35:48.928Z,48.30
2018-09-08T15:38:17.926Z,48.50
2018-09-08T15:40:46.955Z,49.10
2018-09-08T15:43:15.939Z,49.00
2018-09-08T15:45:44.921Z,49.40
2018-09-08T15:48:13.940Z,48.20
2018-09-08T15:50:43.032Z,48.10
2018-09-08T15:53:12.107Z,48.70
2018-09-08T15:55:41.171Z,49.40
2018-09-08T15:58:10.354Z,48.90
2018-09-08T16:00:39.425Z,48.60
2018-09-08T16:03:08.593Z,49.10
2018-09-08T16:05:37.667Z,49.50
2018-09-08T16:08:06.755Z,49.30
2018-09-08T16:10:37.153Z,49.30
2018-09-08T16:13:07.124Z,49.00
2018-09-08T16:15:36.475Z,49.60
2018-09-08T16:18:05.470Z,50.30
2018-09-08T16:20:34.358Z,49.70
2018-09-08T16:23:03.174Z,50.20
2018-09-08T16:25:32.042Z,50.30
2018-09-08T16:28:00.850Z,50.40
2018-09-08T16:30:29.666Z,51.30
2018-09-08T16:32:58.499Z,51.10
2018-09-08T16:35:27.313Z,50.90
2018-09-08T16:37:56.113Z,50.50
2018-09-08T16:40:25.005Z,51.00
2018-09-08T16:42:54.100Z,51.60
2018-09-08T16:45:23.192Z,50.90
2018-09-08T16:47:52.285Z,51.10
2018-09-08T16:50:21.501Z,51.40
2018-09-08T16:52:50.581Z,51.70
2018-09-08T16:55:19.776Z,52.10
2018-09-08T16:57:48.910Z,52.30
2018-09-08T17:00:17.988Z,52.90
2018-09-08T17:02:47.076Z,52.90
2018-09-08T17:05:16.167Z,52.50
2018-09-08T17:07:45.230Z,52.60
2018-09-08T17:10:14.452Z,52.60
2018-09-08T17:12:43.672Z,53.10
2018-09-08T17:15:12.784Z,53.40
2018-09-08T17:17:41.954Z,53.50
2018-09-08T17:20:11.134Z,53.60
2018-09-08T17:22:40.457Z,53.60
2018-09-08T17:25:09.581Z,53.60
2018-09-08T17:27:38.672Z,54.20
2018-09-08T17:30:07.729Z,54.40
2018-09-08T17:33:43.648Z,54.40
2018-09-08T17:36:12.681Z,54.70
2018-09-08T17:38:41.777Z,54.70
2018-09-08T17:41:10.761Z,54.80
2018-09-08T17:43:39.847Z,55.10
2018-09-08T17:46:09.046Z,55.30
2018-09-08T17:48:38.357Z,55.20
2018-09-08T17:51:07.589Z,55.40
2018-09-08T17:54:45.664Z,55.30
2018-09-08T17:57:14.847Z,55.50
2018-09-08T17:59:43.928Z,55.50
2018-09-08T18:02:12.961Z,55.50
2018-09-08T18:04:42.059Z,55.50
2018-09-08T18:07:15.250Z,55.70
2018-09-08T18:09:44.169Z,55.80
2018-09-08T18:12:13.358Z,55.80
2018-09-08T18:14:42.594Z,56.00
2018-09-08T18:17:12.324Z,56.00
2018-09-08T18:19:40.660Z,56.00
2018-09-08T18:22:09.145Z,56.30
2018-09-08T18:24:38.168Z,56.10
2018-09-08T18:27:06.486Z,56.20
2018-09-08T18:29:35.856Z,56.30
2018-09-08T18:32:04.086Z,56.10
2018-09-08T18:34:32.177Z,56.40
2018-09-08T18:37:00.196Z,56.30
2018-09-08T18:39:29.243Z,56.40
2018-09-08T18:41:58.365Z,56.40
2018-09-08T18:44:27.504Z,56.60
2018-09-08T18:46:55.555Z,57.00
2018-09-08T18:49:23.854Z,57.20
2018-09-08T18:51:51.939Z,57.50
2018-09-08T18:54:20.102Z,57.80
2018-09-08T18:56:48.352Z,57.80
2018-09-08T18:59:16.443Z,58.00
2018-09-08T19:01:44.537Z,58.50
2018-09-08T19:04:12.796Z,58.50
2018-09-08T19:06:40.846Z,58.70
2018-09-08T19:09:08.921Z,58.90
2018-09-08T19:11:36.946Z,59.00
2018-09-08T19:14:05.204Z,59.30
2018-09-08T19:16:33.222Z,59.30
2018-09-08T19:19:01.332Z,59.30
2018-09-08T19:21:29.437Z,59.40
2018-09-08T19:24:02.751Z,59.50
2018-09-08T19:26:30.883Z,59.90
2018-09-08T19:29:04.320Z,60.10
2018-09-08T19:31:32.480Z,60.30
2018-09-08T19:34:00.546Z,60.40
2018-09-08T19:36:28.775Z,60.50
2018-09-08T19:38:56.918Z,60.90
2018-09-08T19:41:25.158Z,60.90
2018-09-08T19:43:53.498Z,61.10
2018-09-08T19:46:26.716Z,61.10
2018-09-08T19:48:54.761Z,61.50
2018-09-08T19:51:22.745Z,61.70
2018-09-08T19:53:56.048Z,61.90
2018-09-08T19:56:29.375Z,61.70
2018-09-08T19:58:58.595Z,61.60
2018-09-08T20:01:26.982Z,62.10
2018-09-08T20:03:55.784Z,62.30
2018-09-08T20:06:23.954Z,62.30
2018-09-08T20:08:52.398Z,62.50
2018-09-08T20:11:20.574Z,62.50
2018-09-08T20:13:48.787Z,62.80
2018-09-08T20:16:16.827Z,63.20
2018-09-08T20:18:44.862Z,63.50
2018-09-08T20:21:12.955Z,64.00
2018-09-08T20:24:31.748Z,64.20
2018-09-08T20:26:59.963Z,64.60
2018-09-08T20:29:28.071Z,64.30
2018-09-08T20:31:56.231Z,64.30
2018-09-08T20:34:24.453Z,64.50
2018-09-08T20:36:52.478Z,64.80
2018-09-08T20:39:20.665Z,64.90
2018-09-08T20:41:48.859Z,65.30
2018-09-08T20:44:16.999Z,65.60
2018-09-08T20:46:46.081Z,65.90
2018-09-08T20:49:45.083Z,66.60
2018-09-08T20:52:13.244Z,67.30
2018-09-08T20:54:41.353Z,66.40
2018-09-08T20:57:09.425Z,66.10
2018-09-08T20:59:37.469Z,65.90
2018-09-08T21:02:05.783Z,66.00
2018-09-08T21:04:34.134Z,66.20
2018-09-08T21:07:03.091Z,66.40
2018-09-08T21:09:32.065Z,66.20
2018-09-08T21:12:01.163Z,66.40
2018-09-08T21:14:30.261Z,66.20
2018-09-08T21:16:59.306Z,66.10
2018-09-08T21:19:28.317Z,66.30
2018-09-08T21:21:57.902Z,66.20
2018-09-08T21:24:27.073Z,66.80
2018-09-08T21:26:56.153Z,67.60
2018-09-08T21:29:25.316Z,67.80
2018-09-08T21:31:54.328Z,68.10
2018-09-08T21:34:23.315Z,68.00
2018-09-08T21:36:52.324Z,68.40
2018-09-08T21:39:21.435Z,68.00
2018-09-08T21:41:50.462Z,68.20
2018-09-08T21:44:19.403Z,68.00
2018-09-08T21:46:48.488Z,68.20
2018-09-08T21:49:17.591Z,68.20
2018-09-08T21:51:46.685Z,68.40
2018-09-08T21:54:15.797Z,68.60
2018-09-08T21:56:44.837Z,68.90
2018-09-08T21:59:13.968Z,69.70
2018-09-08T22:01:42.965Z,69.80
2018-09-08T22:04:12.044Z,70.70
2018-09-08T22:06:41.032Z,71.30
2018-09-08T22:09:10.281Z,71.10
2018-09-08T22:11:39.238Z,70.40
2018-09-08T22:14:08.222Z,70.10
2018-09-08T22:16:37.319Z,69.90
2018-09-08T22:19:06.390Z,70.30
2018-09-08T22:21:35.447Z,70.70
2018-09-08T22:24:04.500Z,70.80
2018-09-08T22:26:33.495Z,70.90
2018-09-08T22:29:02.480Z,70.90
2018-09-08T22:31:31.579Z,71.30
2018-09-08T22:34:00.618Z,71.50
2018-09-08T22:36:29.680Z,71.50
2018-09-08T22:38:58.832Z,71.80
2018-09-08T22:41:27.928Z,71.60
2018-09-08T22:43:57.052Z,72.10
2018-09-08T22:46:26.279Z,72.30
2018-09-08T22:48:55.366Z,72.20
2018-09-08T22:51:24.397Z,72.70
2018-09-08T22:53:53.440Z,72.50
2018-09-08T22:56:22.431Z,73.00
2018-09-08T22:58:51.576Z,72.20
2018-09-08T23:01:20.612Z,72.10
2018-09-08T23:03:49.524Z,72.00
2018-09-08T23:06:18.540Z,72.10
2018-09-08T23:08:47.507Z,72.40
2018-09-08T23:11:16.491Z,72.40
2018-09-08T23:13:45.488Z,72.70
2018-09-08T23:16:14.468Z,73.00
2018-09-08T23:18:43.570Z,73.00
2018-09-08T23:21:12.552Z,72.80
2018-09-08T23:23:41.545Z,72.70
2018-09-08T23:26:10.671Z,73.70
2018-09-08T23:28:39.644Z,74.50
2018-09-08T23:31:08.620Z,74.70
2018-09-08T23:33:37.479Z,75.20
2018-09-08T23:36:06.682Z,74.30
2018-09-08T23:38:35.721Z,74.30
2018-09-08T23:41:04.680Z,74.60
2018-09-08T23:43:33.879Z,75.20
2018-09-08T23:46:02.900Z,75.20
2018-09-08T23:48:32.000Z,75.60
2018-09-08T23:51:01.089Z,74.70
2018-09-08T23:53:30.068Z,74.80
2018-09-08T23:55:59.068Z,74.90
2018-09-08T23:58:28.288Z,76.10
